Hopewell, Canada
Current Conditions -  °F | °C
As of 2:00 PM on Monday 26 Jan 2015 (Local Time) from CYHZ Reporting Station
Broken Clouds Broken Clouds  
Wind Chill:   Ceiling: 25000
Heat Index: 18°   Visibility: 15mi
Dew Point:   Wind: 9mph
Humidity: 45%   Direction: 270°W
Pressure: 30.14"   Gusts: NA
Location:  45.47°N, 62.7°W
Report Text: CYHZ 261800Z 27008KT 250V330 15SM BKN250 M08/M18 A3014 RMK CI5 SLP217
Loading
Personal Weather Stations






























Interactive Weather Map New forecast layout! Learn more

10-Day Weather Forecast

Advertisements
Track Severe Weather on mobile